Terminal Aerodrome Forecast
Issued by NWS Shreveport, LA

Home | Current Version | Previous Version | Text Only | Print | Product List | Glossary On
Versions: 1 2 3 4 5 6 7 8 9 10 11 12
000
FTUS44 KSHV 291737
TAFGGG
TAF
KGGG 291737Z 2918/3018 20006KT P6SM FEW045 SCT150 BKN200
     FM300000 17005KT P6SM SCT150 BKN200
     FM300800 19005KT P6SM BKN100
     FM301500 21008KT P6SM SCT100 BKN150=

USA.gov is the U.S. government's official web portal to all federal, state and local government web resources and services.